Terminal Aerodrome Forecast
Issued by NWS

Home | Current Version | Previous Version | Graphics & Text | Print | Product List | Glossary On
Versions: 1 2 3 4 5 6 7 8 9 10 11 12 13
000
FTUS43 KOAX 271132
TAFCDR
TAF
KCDR 271132Z 2712/2812 VRB05KT P6SM SCT060 OVC080
     FM271500 31017G27KT P6SM BKN200
     FM280100 31006KT P6SM SCT250=

USA.gov is the U.S. government's official web portal to all federal, state and local government web resources and services.